Seatac, WA

12:38 AM PDT on iulie 27, 2016 (GMT -0700)
Seattle-Tacoma International | | Change Station

Elev 433 ft 47.44 °N, 122.31 °W | Updated 45 minutes ago

Clear
Cer senin
63 °F
Feels Like 63 °F
N
4
Vânt variabil Vânt from NV

astăzi
High -- | Low -- °F
--% Chance of Precip.
Ieri
High -- | Low -- °F
Precip. -- inch
Presiunea 30.13 inch
Vizibilitatea 10.0 mile
Nori Cer senin
Punctul de rouă 59 °F
Umiditatea 87%
Precipitaţii 0.00 inch
Adâncimea zăpezii Not available.
5:41 AM 8:48 PM
Ultimul pătrar, 46% visible
METAR KSEA 270653Z 31003KT 10SM CLR 17/15 A3012 RMK AO2 SLP203 T01720150
Presiunea 30.13 inch
Vizibilitatea 10.0 mile
Nori Cer senin
Punctul de rouă 59 °F
Umiditatea 87%
Precipitaţii 0.00 inch
Adâncimea zăpezii Not available.
5:41 AM 8:48 PM
Ultimul pătrar, 46% visible
METAR KSEA 270653Z 31003KT 10SM CLR 17/15 A3012 RMK AO2 SLP203 T01720150

10-Day Weather Forecast

Almanac

Astronomie

Jul. 27, 2016 Răsărit Apus
Timpul Actual
Crepusculul Civil
Crepusculul nautic
Răsărit Astronomic
Luna
Durata zilei lumină
Lungimea zilei
Tomorrow will be .
, % of the Moon is Illuminated

Extremele de azi

State Highs State Lows

Community

WunderPhotos

Upload Photos

1,927,818 photos uploaded!

WunderBlog® & News

Nearby

Calitatea aerului

  Calitatea aerului Index de calitate a aerului Poluat
Not available.

Adâncimea zapezii

Station Depth Elevation

Earthquake Activity

Oraş Distance Mag. Time & Date
Minimum magnitude displayed is 2.5.

Coastal Water Temperatures

Locul Temperatura

Stations

Nearby Weather Stations

Locaţia staţiei Temp Vânt rece Punctul de rouă Umiditatea Vânt Precip. Elev Actualizare Type
                   

Watches & Warnings

There are currently no watches in effect.